Time;durP1;ratioP1;P1;durP2;ratioP2;P2;SDS_P1;SDS_P2;PMS_P1;PMS_P2;Temp;Humidity;BMP_temperature;BMP_pressure;BME280_temperature;BME280_humidity;BME280_pressure;Samples;Min_cycle;Max_cycle;Signal;HPM_P1;HPM_P2
2022/05/19 00:02:06;;;;;;;3.60;1.40;;;;;;101549.56;;;;107784;1271;25776;-26
2022/05/19 00:04:34;;;;;;;3.80;1.50;;;;;;101550.36;;;;107842;1271;29000;-26
2022/05/19 00:07:02;;;;;;;3.30;1.30;;;;;;101549.70;;;;107828;1273;28385;-26
2022/05/19 00:09:29;;;;;;;3.70;1.40;;;;;;101549.59;;;;107857;1271;29250;-26
2022/05/19 00:11:58;;;;;;;3.50;1.50;;;;;;101549.43;;;;107862;1271;25772;-25
2022/05/19 00:14:25;;;;;;;3.50;1.40;;;;;;101549.59;;;;107876;1271;30589;-25
2022/05/19 00:16:56;;;;;;;3.50;1.50;;;;;;101546.85;;;;107837;1271;26035;-26
2022/05/19 00:19:23;;;;;;;3.90;1.90;;;;;;101545.13;;;;107838;1271;26066;-26
2022/05/19 00:21:50;;;;;;;3.90;1.70;;;;;;101543.30;;;;107799;1271;27724;-26
2022/05/19 00:24:17;;;;;;;5.10;1.80;;;;;;101542.20;;;;107851;1271;26587;-26
2022/05/19 00:26:44;;;;;;;4.20;1.80;;;;;;101544.45;;;;107844;1271;28575;-26
2022/05/19 00:29:10;;;;;;;3.60;1.50;;;;;;101544.10;;;;107837;1271;30438;-26
2022/05/19 00:31:38;;;;;;;4.10;1.60;;;;;;101541.76;;;;107864;1271;30535;-25
2022/05/19 00:34:06;;;;;;;4.20;1.80;;;;;;101542.97;;;;107850;1271;27900;-26
2022/05/19 00:36:33;;;;;;;3.80;1.70;;;;;;101543.48;;;;107846;1270;28449;-26
2022/05/19 00:39:01;;;;;;;3.90;1.80;;;;;;101546.80;;;;107862;1271;28361;-27
2022/05/19 00:41:27;;;;;;;4.00;1.60;;;;;;101541.58;;;;107838;1271;26006;-27
2022/05/19 00:44:04;;;;;;;4.80;2.00;;;;;;101545.11;;;;107854;1271;28359;-27
2022/05/19 00:46:50;;;;;;;3.60;1.60;;;;;;101542.40;;;;107873;1271;28436;-25
2022/05/19 00:49:31;;;;;;;3.80;1.70;;;;;;101541.58;;;;107833;1271;29070;-25
2022/05/19 00:52:30;;;;;;;3.70;1.50;;;;;;101538.95;;;;107890;1271;28351;-26
2022/05/19 00:55:05;;;;;;;4.30;2.10;;;;;;101539.72;;;;107873;1271;27276;-26
2022/05/19 00:57:37;;;;;;;4.30;2.00;;;;;;101547.42;;;;107889;1271;30503;-26
2022/05/19 01:00:10;;;;;;;3.30;1.80;;;;;;101547.81;;;;107872;1271;28404;-26
2022/05/19 01:02:41;;;;;;;3.40;1.70;;;;;;101547.88;;;;107867;1271;26547;-26
2022/05/19 01:05:18;;;;;;;3.50;1.80;;;;;;101541.89;;;;107844;1271;28369;-26
2022/05/19 01:07:56;;;;;;;4.20;1.90;;;;;;101542.81;;;;107843;1271;30718;-26
2022/05/19 01:10:23;;;;;;;5.10;2.00;;;;;;101542.73;;;;107847;1271;25963;-26
2022/05/19 01:12:51;;;;;;;4.10;2.10;;;;;;101545.70;;;;107876;1271;27520;-26
2022/05/19 01:15:19;;;;;;;4.50;2.00;;;;;;101550.02;;;;107873;1272;27703;-26
2022/05/19 01:17:46;;;;;;;4.00;2.10;;;;;;101551.23;;;;107787;1273;26055;-26
2022/05/19 01:20:25;;;;;;;4.30;2.10;;;;;;101555.67;;;;107832;1271;27929;-29
2022/05/19 01:22:55;;;;;;;4.50;2.20;;;;;;101558.80;;;;107813;1272;30254;-26
2022/05/19 01:25:54;;;;;;;4.30;2.20;;;;;;101557.08;;;;107847;1271;28330;-25
2022/05/19 01:28:21;;;;;;;4.40;1.80;;;;;;101555.58;;;;107837;1271;28178;-25
2022/05/19 01:30:48;;;;;;;5.40;2.50;;;;;;101552.58;;;;107803;1273;27903;-26
2022/05/19 01:33:15;;;;;;;4.30;1.90;;;;;;101548.55;;;;107837;1271;28367;-27
2022/05/19 01:35:42;;;;;;;4.50;2.50;;;;;;101544.48;;;;107839;1271;25875;-27
2022/05/19 01:38:20;;;;;;;4.10;2.10;;;;;;101544.47;;;;107832;1271;30495;-27
2022/05/19 01:41:19;;;;;;;5.10;2.30;;;;;;101542.36;;;;107846;1271;27248;-27
2022/05/19 01:44:02;;;;;;;4.90;2.20;;;;;;101546.20;;;;107850;1271;28218;-27
2022/05/19 01:46:37;;;;;;;5.10;2.50;;;;;;101548.69;;;;107822;1271;27373;-25
2022/05/19 01:49:21;;;;;;;4.80;2.20;;;;;;101547.80;;;;107908;1271;25812;-26
2022/05/19 01:51:58;;;;;;;4.50;2.30;;;;;;101544.52;;;;107865;1271;27269;-26
2022/05/19 01:54:53;;;;;;;4.80;2.80;;;;;;101545.25;;;;107882;1270;27305;-26
2022/05/19 01:57:33;;;;;;;4.60;2.40;;;;;;101546.96;;;;107854;1271;30575;-26
2022/05/19 02:00:12;;;;;;;4.60;2.50;;;;;;101550.05;;;;107831;1271;28392;-26
2022/05/19 02:03:29;;;;;;;4.50;2.40;;;;;;101552.93;;;;107859;1273;27820;-26
2022/05/19 02:06:11;;;;;;;4.20;2.30;;;;;;101552.59;;;;107819;1271;29594;-26
2022/05/19 02:08:53;;;;;;;4.90;2.30;;;;;;101551.23;;;;107820;1271;28495;-26
2022/05/19 02:11:29;;;;;;;4.30;2.20;;;;;;101550.37;;;;107841;1271;27369;-26
2022/05/19 02:13:59;;;;;;;4.00;2.20;;;;;;101551.68;;;;107833;1273;27188;-26
2022/05/19 02:16:27;;;;;;;5.10;2.40;;;;;;101550.77;;;;107859;1273;28420;-26
2022/05/19 02:18:54;;;;;;;5.20;2.70;;;;;;101548.80;;;;107856;1272;29190;-26
2022/05/19 02:21:22;;;;;;;4.60;2.60;;;;;;101545.95;;;;107782;1272;27600;-26
2022/05/19 02:23:49;;;;;;;4.50;2.60;;;;;;101542.98;;;;107763;1272;28500;-26
2022/05/19 02:26:16;;;;;;;4.20;2.20;;;;;;101542.88;;;;107861;1271;30133;-26
2022/05/19 02:28:54;;;;;;;4.40;2.30;;;;;;101540.39;;;;107873;1271;30556;-26
2022/05/19 02:31:20;;;;;;;4.80;2.30;;;;;;101535.52;;;;107855;1271;28374;-26
2022/05/19 02:33:47;;;;;;;5.00;2.60;;;;;;101537.45;;;;107837;1271;28354;-26
2022/05/19 02:36:14;;;;;;;4.50;2.30;;;;;;101538.41;;;;107804;1271;26058;-26
2022/05/19 02:38:40;;;;;;;4.10;2.50;;;;;;101536.48;;;;107826;1273;28432;-26
2022/05/19 02:41:08;;;;;;;4.70;2.30;;;;;;101537.09;;;;107813;1273;26063;-30
2022/05/19 02:43:35;;;;;;;6.30;2.70;;;;;;101535.98;;;;107826;1271;29609;-27
2022/05/19 02:46:01;;;;;;;4.70;2.90;;;;;;101533.27;;;;107828;1272;28287;-27
2022/05/19 02:48:29;;;;;;;5.20;2.60;;;;;;101531.98;;;;107829;1271;28425;-27
2022/05/19 02:50:56;;;;;;;4.20;2.40;;;;;;101530.26;;;;107850;1271;29133;-24
2022/05/19 02:53:22;;;;;;;5.00;2.80;;;;;;101527.91;;;;107834;1271;25874;-26
2022/05/19 02:55:49;;;;;;;4.60;2.90;;;;;;101531.59;;;;107827;1271;27297;-26
2022/05/19 02:58:16;;;;;;;4.30;2.60;;;;;;101531.26;;;;107839;1271;28397;-27
2022/05/19 03:00:46;;;;;;;4.90;2.70;;;;;;101531.61;;;;107758;1271;25917;-26
2022/05/19 03:03:14;;;;;;;4.60;2.60;;;;;;101532.34;;;;107838;1271;27200;-26
2022/05/19 03:05:41;;;;;;;5.00;2.70;;;;;;101533.13;;;;107845;1271;28349;-26
2022/05/19 03:08:10;;;;;;;4.50;2.90;;;;;;101534.10;;;;107820;1273;26639;-26
2022/05/19 03:10:39;;;;;;;5.20;2.90;;;;;;101531.39;;;;107876;1271;27802;-26
2022/05/19 03:13:06;;;;;;;5.50;2.80;;;;;;101532.60;;;;107842;1271;30515;-26
2022/05/19 03:15:34;;;;;;;5.00;2.90;;;;;;101533.36;;;;107818;1271;29003;-26
2022/05/19 03:18:01;;;;;;;4.90;2.80;;;;;;101532.70;;;;107850;1271;28385;-26
2022/05/19 03:20:28;;;;;;;5.60;2.80;;;;;;101533.70;;;;107803;1271;29539;-26
2022/05/19 03:22:55;;;;;;;4.80;2.70;;;;;;101534.98;;;;107837;1271;25953;-26
2022/05/19 03:25:21;;;;;;;5.20;2.90;;;;;;101536.00;;;;107839;1273;27266;-27
2022/05/19 03:27:48;;;;;;;4.00;2.50;;;;;;101536.80;;;;107819;1271;28410;-27
2022/05/19 03:30:16;;;;;;;5.60;3.00;;;;;;101538.91;;;;107900;1271;28823;-27
2022/05/19 03:32:44;;;;;;;4.50;2.50;;;;;;101536.16;;;;107837;1271;29344;-27
2022/05/19 03:35:16;;;;;;;5.90;2.70;;;;;;101536.35;;;;107841;1272;26361;-27
2022/05/19 03:37:44;;;;;;;4.80;2.60;;;;;;101537.16;;;;107826;1271;28411;-24
2022/05/19 03:40:13;;;;;;;4.90;2.60;;;;;;101539.73;;;;107835;1271;29623;-30
2022/05/19 03:42:40;;;;;;;5.10;3.10;;;;;;101542.48;;;;107862;1271;25783;-26
2022/05/19 03:45:08;;;;;;;4.80;2.70;;;;;;101541.48;;;;107816;1271;26720;-26
2022/05/19 03:47:34;;;;;;;4.10;2.50;;;;;;101536.92;;;;107844;1271;27760;-26
2022/05/19 03:50:02;;;;;;;4.90;2.60;;;;;;101536.31;;;;107790;1273;26049;-26
2022/05/19 03:52:28;;;;;;;4.90;2.70;;;;;;101534.27;;;;107837;1271;30841;-26
2022/05/19 03:54:56;;;;;;;5.40;3.00;;;;;;101534.48;;;;107797;1273;28322;-26
2022/05/19 03:57:23;;;;;;;5.60;3.00;;;;;;101539.02;;;;107836;1271;28012;-26
2022/05/19 03:59:51;;;;;;;5.60;3.10;;;;;;101540.05;;;;107810;1271;28221;-26
2022/05/19 04:02:18;;;;;;;4.80;2.70;;;;;;101538.43;;;;107794;1272;28361;-27
2022/05/19 04:04:45;;;;;;;6.40;3.50;;;;;;101538.63;;;;107825;1271;30675;-26
2022/05/19 04:07:11;;;;;;;4.40;2.90;;;;;;101540.56;;;;107846;1271;26063;-26
2022/05/19 04:09:38;;;;;;;4.20;2.70;;;;;;101539.48;;;;107844;1271;28849;-27
2022/05/19 04:12:06;;;;;;;4.80;3.00;;;;;;101537.81;;;;107823;1271;28072;-27
2022/05/19 04:14:34;;;;;;;4.90;2.60;;;;;;101535.80;;;;107849;1271;28319;-27
2022/05/19 04:17:00;;;;;;;4.60;2.70;;;;;;101537.15;;;;107832;1271;27783;-27
2022/05/19 04:19:27;;;;;;;4.80;3.00;;;;;;101536.32;;;;107815;1271;26044;-27
2022/05/19 04:21:54;;;;;;;4.70;2.90;;;;;;101535.98;;;;107832;1272;28109;-25
2022/05/19 04:24:20;;;;;;;4.70;2.90;;;;;;101530.71;;;;107835;1271;27173;-27
2022/05/19 04:26:49;;;;;;;4.70;2.90;;;;;;101532.19;;;;107835;1271;27640;-27
2022/05/19 04:29:15;;;;;;;4.70;3.00;;;;;;101531.60;;;;107824;1271;28331;-27
2022/05/19 04:31:42;;;;;;;4.60;2.90;;;;;;101530.52;;;;107845;1271;27133;-27
2022/05/19 04:34:09;;;;;;;5.20;3.10;;;;;;101532.49;;;;107854;1270;26534;-27
2022/05/19 04:36:36;;;;;;;5.00;3.10;;;;;;101532.15;;;;107845;1271;28352;-27
2022/05/19 04:39:03;;;;;;;5.10;3.50;;;;;;101530.13;;;;107794;1271;28328;-27
2022/05/19 04:41:30;;;;;;;4.40;2.90;;;;;;101530.78;;;;107828;1271;30966;-27
2022/05/19 04:43:57;;;;;;;4.40;2.80;;;;;;101527.02;;;;107820;1273;28370;-27
2022/05/19 04:46:23;;;;;;;5.30;2.90;;;;;;101526.05;;;;107848;1271;28449;-27
2022/05/19 04:48:50;;;;;;;5.30;3.50;;;;;;101527.95;;;;107811;1271;30137;-27
2022/05/19 04:51:17;;;;;;;5.10;2.80;;;;;;101528.53;;;;107834;1271;27974;-27
2022/05/19 04:53:43;;;;;;;4.70;2.90;;;;;;101529.36;;;;107822;1271;28325;-27
2022/05/19 04:56:10;;;;;;;5.20;2.80;;;;;;101527.20;;;;107841;1271;30794;-24
2022/05/19 04:58:37;;;;;;;5.10;2.70;;;;;;101529.27;;;;107808;1271;28434;-26
2022/05/19 05:01:05;;;;;;;4.70;2.80;;;;;;101530.29;;;;107855;1272;27694;-25
2022/05/19 05:03:33;;;;;;;5.30;3.00;;;;;;101531.99;;;;107860;1271;28305;-24
2022/05/19 05:06:00;;;;;;;5.80;3.20;;;;;;101528.91;;;;107854;1271;30598;-25
2022/05/19 05:08:27;;;;;;;5.20;3.30;;;;;;101529.84;;;;107849;1271;25891;-26
2022/05/19 05:10:54;;;;;;;5.70;3.00;;;;;;101531.02;;;;107830;1273;28358;-26
2022/05/19 05:13:21;;;;;;;5.80;3.10;;;;;;101527.55;;;;107871;1271;28426;-26
2022/05/19 05:15:48;;;;;;;4.90;2.90;;;;;;101523.63;;;;107830;1271;30595;-26
2022/05/19 05:18:14;;;;;;;4.90;2.80;;;;;;101522.73;;;;107816;1271;27317;-26
2022/05/19 05:20:42;;;;;;;4.70;2.90;;;;;;101521.49;;;;107861;1271;29605;-26
2022/05/19 05:23:10;;;;;;;5.00;2.90;;;;;;101522.02;;;;107805;1271;29287;-27
2022/05/19 05:25:37;;;;;;;5.20;2.90;;;;;;101523.44;;;;107418;1273;540040;-27
2022/05/19 05:28:04;;;;;;;5.30;2.90;;;;;;101524.33;;;;107799;1272;28276;-27
2022/05/19 05:30:30;;;;;;;5.30;2.90;;;;;;101524.60;;;;107834;1273;28328;-24
2022/05/19 05:33:07;;;;;;;4.50;2.90;;;;;;101526.02;;;;107829;1273;28419;-24
2022/05/19 05:35:34;;;;;;;6.70;3.10;;;;;;101524.77;;;;107848;1272;28585;-24
2022/05/19 05:38:01;;;;;;;5.40;3.10;;;;;;101528.99;;;;107802;1271;25908;-28
2022/05/19 05:40:28;;;;;;;5.80;3.00;;;;;;101536.08;;;;107777;1270;28407;-30
2022/05/19 05:42:55;;;;;;;6.70;3.10;;;;;;101538.46;;;;107787;1271;28485;-27
2022/05/19 05:45:22;;;;;;;5.40;2.90;;;;;;101541.64;;;;107781;1271;25801;-27
2022/05/19 05:47:48;;;;;;;5.30;2.80;;;;;;101539.85;;;;107886;1271;28360;-28
2022/05/19 05:50:15;;;;;;;5.00;2.60;;;;;;101539.30;;;;107802;1271;25948;-28
2022/05/19 05:52:42;;;;;;;7.20;2.60;;;;;;101534.92;;;;107848;1271;25750;-28
2022/05/19 05:55:09;;;;;;;5.70;2.60;;;;;;101535.74;;;;107876;1271;28259;-28
2022/05/19 05:57:36;;;;;;;4.80;2.80;;;;;;101537.68;;;;107786;1272;29978;-28
2022/05/19 06:00:06;;;;;;;5.20;2.40;;;;;;101540.36;;;;107985;1271;28379;-30
2022/05/19 06:02:33;;;;;;;6.80;2.90;;;;;;101542.22;;;;107886;1271;28342;-29
2022/05/19 06:05:00;;;;;;;4.90;2.50;;;;;;101545.43;;;;107838;1271;28417;-29
2022/05/19 06:07:29;;;;;;;4.40;2.20;;;;;;101545.64;;;;107819;1270;28398;-29
2022/05/19 06:09:56;;;;;;;7.40;2.50;;;;;;101539.95;;;;107779;1271;30779;-29
2022/05/19 06:12:25;;;;;;;5.40;2.40;;;;;;101539.91;;;;107798;1271;28412;-29
2022/05/19 06:14:56;;;;;;;4.50;2.00;;;;;;101538.21;;;;107867;1271;27617;-30
2022/05/19 06:17:24;;;;;;;5.50;2.10;;;;;;101534.69;;;;107884;1271;25916;-29
2022/05/19 06:19:51;;;;;;;4.20;2.00;;;;;;101529.42;;;;107994;1271;25970;-29
2022/05/19 06:22:21;;;;;;;4.90;2.40;;;;;;101532.64;;;;107874;1271;25713;-30
2022/05/19 06:24:49;;;;;;;5.20;2.30;;;;;;101534.27;;;;107871;1271;28921;-30
2022/05/19 06:27:16;;;;;;;5.30;2.40;;;;;;101535.92;;;;107921;1271;28461;-29
2022/05/19 06:29:43;;;;;;;5.00;2.40;;;;;;101532.67;;;;107792;1271;28418;-31
2022/05/19 06:32:10;;;;;;;4.60;2.30;;;;;;101527.23;;;;107923;1271;31021;-30
2022/05/19 06:34:37;;;;;;;5.20;2.40;;;;;;101525.73;;;;107765;1271;29958;-29
2022/05/19 06:37:04;;;;;;;4.90;2.10;;;;;;101533.50;;;;107729;1271;27917;-29
2022/05/19 06:39:31;;;;;;;5.00;2.20;;;;;;101533.35;;;;107954;1271;28415;-28
2022/05/19 06:42:00;;;;;;;4.60;1.80;;;;;;101533.94;;;;107769;1271;28331;-29
2022/05/19 06:44:37;;;;;;;4.00;1.80;;;;;;101532.48;;;;107889;1271;28402;-28
2022/05/19 06:47:13;;;;;;;4.50;2.00;;;;;;101532.08;;;;107790;1271;28348;-30
2022/05/19 06:49:47;;;;;;;3.80;1.90;;;;;;101533.94;;;;107845;1271;28493;-30
2022/05/19 06:52:18;;;;;;;6.40;1.90;;;;;;101538.02;;;;107827;1271;30818;-30
2022/05/19 06:54:47;;;;;;;4.30;2.00;;;;;;101537.94;;;;107843;1271;30564;-30
2022/05/19 06:57:15;;;;;;;4.10;2.00;;;;;;101532.27;;;;107910;1271;25927;-30
2022/05/19 06:59:42;;;;;;;5.00;1.90;;;;;;101523.55;;;;107869;1271;26020;-30
2022/05/19 07:02:10;;;;;;;4.90;1.90;;;;;;101524.75;;;;107970;1271;30747;-30
2022/05/19 07:04:38;;;;;;;4.90;2.10;;;;;;101523.30;;;;107898;1271;26399;-28
2022/05/19 07:07:06;;;;;;;4.90;2.00;;;;;;101521.70;;;;107984;1271;27180;-29
2022/05/19 07:09:34;;;;;;;3.60;1.80;;;;;;101523.05;;;;107847;1271;25915;-30
2022/05/19 07:12:03;;;;;;;3.90;1.90;;;;;;101523.98;;;;107955;1271;25755;-30
2022/05/19 07:14:32;;;;;;;3.60;1.50;;;;;;101523.87;;;;107854;1271;29010;-30
2022/05/19 07:16:59;;;;;;;5.00;2.10;;;;;;101519.39;;;;107877;1271;28457;-30
2022/05/19 07:22:19;;;;;;;3.70;1.50;;;;;;101519.50;;;;107750;1271;28508;-30
2022/05/19 07:24:46;;;;;;;4.80;1.70;;;;;;101516.23;;;;107865;1271;28185;-30
2022/05/19 07:27:12;;;;;;;4.50;1.60;;;;;;101512.06;;;;107835;1271;28457;-30
2022/05/19 07:29:40;;;;;;;3.10;1.50;;;;;;101509.23;;;;107782;1271;26135;-31
2022/05/19 07:32:08;;;;;;;4.40;1.70;;;;;;101506.58;;;;107932;1271;27731;-30
2022/05/19 07:34:38;;;;;;;4.80;1.60;;;;;;101507.64;;;;107838;1271;27642;-29
2022/05/19 07:37:06;;;;;;;4.20;1.60;;;;;;101512.41;;;;107855;1271;28398;-28
2022/05/19 07:39:34;;;;;;;5.40;1.40;;;;;;101512.42;;;;107795;1271;28436;-29
2022/05/19 07:42:01;;;;;;;3.80;1.40;;;;;;101507.92;;;;107930;1271;27374;-29
2022/05/19 07:44:29;;;;;;;3.70;1.20;;;;;;101507.54;;;;107853;1271;28082;-29
2022/05/19 07:46:56;;;;;;;3.50;1.20;;;;;;101507.00;;;;107816;1271;27129;-29
2022/05/19 07:49:23;;;;;;;3.40;1.30;;;;;;101496.05;;;;107910;1271;30167;-29
2022/05/19 07:51:50;;;;;;;3.50;1.20;;;;;;101493.37;;;;107814;1271;27780;-29
2022/05/19 07:54:24;;;;;;;3.10;1.20;;;;;;101491.80;;;;107898;1271;30689;-27
2022/05/19 07:56:51;;;;;;;25.50;2.00;;;;;;101492.52;;;;107890;1271;26213;-30
2022/05/19 07:59:19;;;;;;;4.50;1.30;;;;;;101492.27;;;;107804;1271;28471;-31
2022/05/19 08:01:47;;;;;;;5.40;1.60;;;;;;101489.83;;;;108014;1271;30417;-33
2022/05/19 08:04:15;;;;;;;4.00;1.20;;;;;;101486.55;;;;107845;1271;28643;-34
2022/05/19 08:06:43;;;;;;;4.70;1.70;;;;;;101484.00;;;;107938;1271;28471;-33
2022/05/19 08:11:55;;;;;;;4.70;1.30;;;;;;101489.15;;;;107829;1271;27711;-35
2022/05/19 08:17:10;;;;;;;4.00;1.50;;;;;;101482.48;;;;107869;1271;28352;-35
2022/05/19 08:19:38;;;;;;;3.70;1.20;;;;;;101481.76;;;;107733;1271;28430;-35
2022/05/19 08:22:08;;;;;;;3.20;1.30;;;;;;101483.64;;;;107961;1271;25868;-36
2022/05/19 08:24:36;;;;;;;4.70;1.40;;;;;;101487.37;;;;107819;1271;27720;-35
2022/05/19 08:27:03;;;;;;;3.90;1.50;;;;;;101480.04;;;;107882;1271;25977;-35
2022/05/19 08:29:31;;;;;;;3.00;1.30;;;;;;101474.70;;;;107785;1272;27666;-35
2022/05/19 08:31:58;;;;;;;3.50;1.40;;;;;;101470.83;;;;107899;1271;27292;-35
2022/05/19 08:34:24;;;;;;;3.40;1.30;;;;;;101468.66;;;;107841;1271;25935;-35
2022/05/19 08:36:51;;;;;;;3.50;1.10;;;;;;101477.09;;;;107766;1271;27809;-35
2022/05/19 08:39:21;;;;;;;3.70;1.40;;;;;;101470.51;;;;107935;1271;28337;-35
2022/05/19 08:41:52;;;;;;;5.10;1.20;;;;;;101477.42;;;;107809;1272;30719;-34
2022/05/19 08:44:40;;;;;;;2.80;1.10;;;;;;101473.43;;;;107823;1271;28498;-35
2022/05/19 08:47:11;;;;;;;3.60;1.00;;;;;;101471.29;;;;107928;1271;28342;-35
2022/05/19 08:49:46;;;;;;;2.60;1.00;;;;;;101467.96;;;;107808;1271;30186;-35
2022/05/19 08:52:18;;;;;;;3.30;1.20;;;;;;101461.17;;;;107927;1271;28335;-33
2022/05/19 08:54:48;;;;;;;4.40;1.20;;;;;;101455.09;;;;107877;1271;28555;-35
2022/05/19 08:57:31;;;;;;;3.20;1.10;;;;;;101447.69;;;;107835;1271;30794;-35
2022/05/19 09:00:20;;;;;;;3.60;1.10;;;;;;101451.98;;;;107841;1271;26413;-38
2022/05/19 09:02:56;;;;;;;3.10;1.10;;;;;;101447.80;;;;107857;1271;28032;-39
2022/05/19 09:05:46;;;;;;;3.40;1.10;;;;;;101446.73;;;;107829;1271;26047;-37
2022/05/19 09:08:36;;;;;;;2.40;1.10;;;;;;101447.35;;;;107877;1271;28273;-35
2022/05/19 09:11:17;;;;;;;3.60;1.20;;;;;;101445.42;;;;107877;1271;30823;-34
2022/05/19 09:14:00;;;;;;;2.10;0.70;;;;;;101448.14;;;;107869;1271;27510;-33
2022/05/19 09:16:34;;;;;;;2.40;1.00;;;;;;101448.13;;;;107890;1271;28350;-33
2022/05/19 09:19:20;;;;;;;8.90;1.30;;;;;;101439.63;;;;107877;1271;28050;-33
2022/05/19 09:22:00;;;;;;;4.20;1.00;;;;;;101441.86;;;;107865;1271;28271;-31
2022/05/19 09:24:27;;;;;;;4.70;1.00;;;;;;101433.45;;;;107859;1271;28329;-33
2022/05/19 09:26:57;;;;;;;6.30;1.30;;;;;;101436.95;;;;107972;1271;27222;-32
2022/05/19 09:29:42;;;;;;;3.10;0.90;;;;;;101433.42;;;;107858;1271;28218;-34
2022/05/19 09:32:45;;;;;;;2.30;0.80;;;;;;101430.92;;;;107749;1271;30332;-34
2022/05/19 09:35:15;;;;;;;3.20;0.90;;;;;;101433.08;;;;107769;1273;28244;-34
2022/05/19 09:38:02;;;;;;;3.80;1.20;;;;;;101428.51;;;;107911;1271;28236;-34
2022/05/19 09:40:33;;;;;;;3.60;1.00;;;;;;101427.91;;;;107793;1271;26039;-34
2022/05/19 09:43:06;;;;;;;2.80;1.10;;;;;;101430.63;;;;107814;1271;27310;-33
2022/05/19 09:45:42;;;;;;;2.30;0.90;;;;;;101426.54;;;;107918;1271;30707;-33
2022/05/19 09:48:10;;;;;;;2.80;0.90;;;;;;101417.70;;;;107707;1271;28434;-34
2022/05/19 09:50:48;;;;;;;3.20;1.10;;;;;;101414.29;;;;107786;1271;28401;-32
2022/05/19 09:53:23;;;;;;;5.00;0.90;;;;;;101413.39;;;;107801;1271;25966;-33
2022/05/19 09:56:01;;;;;;;2.70;0.80;;;;;;101406.39;;;;107760;1271;26141;-33
2022/05/19 09:58:35;;;;;;;3.40;1.30;;;;;;101403.45;;;;107824;1271;25796;-33
2022/05/19 10:01:13;;;;;;;2.90;1.20;;;;;;101402.64;;;;107801;1271;28304;-34
2022/05/19 10:03:51;;;;;;;3.50;1.00;;;;;;101401.07;;;;107699;1271;29479;-33
2022/05/19 10:06:24;;;;;;;2.70;0.90;;;;;;101397.02;;;;107712;1274;27329;-32
2022/05/19 10:09:20;;;;;;;3.50;1.10;;;;;;101392.74;;;;107783;1270;30166;-32
2022/05/19 10:11:52;;;;;;;3.90;1.60;;;;;;101386.94;;;;107762;1271;29602;-31
2022/05/19 10:14:28;;;;;;;3.00;1.00;;;;;;101383.52;;;;107886;1271;28689;-31
2022/05/19 10:17:26;;;;;;;2.60;1.10;;;;;;101377.91;;;;107782;1271;26015;-33
2022/05/19 10:20:07;;;;;;;2.50;1.10;;;;;;101372.52;;;;107767;1271;28359;-32
2022/05/19 10:23:00;;;;;;;3.00;1.00;;;;;;101366.20;;;;107874;1271;26107;-32
2022/05/19 10:26:00;;;;;;;4.20;1.30;;;;;;101365.27;;;;107908;1271;28342;-33
2022/05/19 10:32:29;;;;;;;3.30;0.90;;;;;;101348.11;;;;107810;1271;28285;-33
2022/05/19 10:35:20;;;;;;;3.90;1.10;;;;;;101341.56;;;;107884;1271;27749;-33
2022/05/19 10:38:32;;;;;;;2.80;1.10;;;;;;101336.62;;;;107998;1270;28309;-35
2022/05/19 10:41:10;;;;;;;4.30;1.20;;;;;;101335.68;;;;107905;1271;27943;-35
2022/05/19 10:43:59;;;;;;;3.00;1.20;;;;;;101332.20;;;;107784;1271;28501;-34
2022/05/19 10:46:42;;;;;;;3.00;1.10;;;;;;101331.38;;;;107866;1271;26166;-34
2022/05/19 10:49:37;;;;;;;3.90;1.30;;;;;;101326.27;;;;107915;1272;28390;-34
2022/05/19 10:52:25;;;;;;;3.90;1.40;;;;;;101318.05;;;;107746;1272;29488;-33
2022/05/19 10:55:22;;;;;;;3.80;1.40;;;;;;101321.70;;;;107869;1271;31152;-32
2022/05/19 10:58:39;;;;;;;3.50;1.30;;;;;;101319.52;;;;108878;1271;28331;-33
2022/05/19 11:02:00;;;;;;;3.30;1.20;;;;;;101309.29;;;;107479;1277;29221;-32
2022/05/19 11:05:02;;;;;;;3.90;1.30;;;;;;101308.13;;;;109590;1270;26183;-34
2022/05/19 11:07:59;;;;;;;3.20;1.10;;;;;;101315.20;;;;107858;1271;28210;-32
2022/05/19 11:10:45;;;;;;;2.30;0.90;;;;;;101307.63;;;;107947;1271;26131;-31
2022/05/19 11:14:17;;;;;;;3.00;1.50;;;;;;101306.20;;;;107991;1270;30674;-31
2022/05/19 11:17:24;;;;;;;3.60;1.50;;;;;;101301.19;;;;107774;1271;26779;-31
2022/05/19 11:20:00;;;;;;;3.70;1.20;;;;;;101284.30;;;;107810;1271;27184;-32
2022/05/19 11:22:31;;;;;;;4.40;1.40;;;;;;101281.02;;;;107837;1271;26599;-32
2022/05/19 11:28:39;;;;;;;3.10;1.20;;;;;;101282.84;;;;107904;1271;29523;-31
2022/05/19 11:31:31;;;;;;;3.60;1.30;;;;;;101276.31;;;;107897;1271;28462;-32
2022/05/19 11:33:59;;;;;;;4.40;1.40;;;;;;101266.90;;;;107894;1271;27789;-31
2022/05/19 11:36:38;;;;;;;3.10;1.30;;;;;;101263.48;;;;107873;1271;26671;-31
2022/05/19 11:39:35;;;;;;;3.90;1.40;;;;;;101265.63;;;;107865;1271;25734;-31
2022/05/19 11:42:38;;;;;;;2.80;1.10;;;;;;101260.42;;;;107874;1272;28579;-31
2022/05/19 11:45:10;;;;;;;3.50;1.30;;;;;;101260.83;;;;107928;1271;27168;-31
2022/05/19 11:55:12;;;;;;;5.60;1.30;;;;;;101249.47;;;;107745;1271;27765;-32
2022/05/19 11:55:21;;;;;;;4.60;1.30;;;;;;101238.11;;;;107772;1271;30715;-31
2022/05/19 11:58:03;;;;;;;3.00;1.20;;;;;;101235.23;;;;107912;1271;28257;-31
2022/05/19 12:00:49;;;;;;;3.00;1.30;;;;;;101228.46;;;;107807;1271;28339;-31
2022/05/19 12:03:43;;;;;;;3.40;1.20;;;;;;101233.48;;;;107922;1271;26582;-31
2022/05/19 12:06:12;;;;;;;3.80;1.90;;;;;;101230.90;;;;107834;1271;26651;-31
2022/05/19 12:08:57;;;;;;;4.20;1.60;;;;;;101230.08;;;;107834;1271;25767;-31
2022/05/19 12:11:52;;;;;;;4.40;1.50;;;;;;101224.64;;;;107783;1271;28553;-31
2022/05/19 12:14:24;;;;;;;3.60;1.20;;;;;;101218.58;;;;107880;1271;28238;-31
2022/05/19 12:17:34;;;;;;;2.90;1.40;;;;;;101213.42;;;;107909;1271;30691;-31
2022/05/19 12:20:03;;;;;;;4.80;1.40;;;;;;101211.84;;;;107783;1271;28353;-31
2022/05/19 12:22:43;;;;;;;4.30;1.60;;;;;;101207.11;;;;107742;1271;27124;-31
2022/05/19 12:25:26;;;;;;;4.10;1.60;;;;;;101208.25;;;;107793;1271;28364;-32
2022/05/19 12:28:17;;;;;;;3.90;1.30;;;;;;101203.90;;;;107826;1271;28358;-31
2022/05/19 12:33:56;;;;;;;3.40;1.40;;;;;;101201.52;;;;107817;1274;27577;-32
2022/05/19 12:36:44;;;;;;;3.20;1.30;;;;;;101194.99;;;;107885;1272;27772;-32
2022/05/19 12:39:13;;;;;;;4.60;1.40;;;;;;101196.13;;;;107928;1271;28537;-32
2022/05/19 12:41:50;;;;;;;3.20;1.50;;;;;;101193.45;;;;107828;1271;28341;-32
2022/05/19 12:44:35;;;;;;;3.00;1.10;;;;;;101191.08;;;;107802;1271;29750;-32
2022/05/19 12:47:30;;;;;;;3.80;1.50;;;;;;101187.84;;;;107895;1271;27660;-33
2022/05/19 12:50:09;;;;;;;3.30;1.40;;;;;;101185.44;;;;107872;1271;29218;-31
2022/05/19 12:52:58;;;;;;;4.10;1.30;;;;;;101178.59;;;;107884;1271;28545;-31
2022/05/19 12:55:25;;;;;;;3.60;1.40;;;;;;101167.37;;;;107788;1273;28336;-32
2022/05/19 12:57:57;;;;;;;3.50;1.50;;;;;;101170.17;;;;107929;1271;26331;-32
2022/05/19 13:00:27;;;;;;;4.00;1.60;;;;;;101170.90;;;;107969;1271;29954;-31
2022/05/19 13:03:04;;;;;;;4.00;1.70;;;;;;101167.61;;;;107831;1271;28893;-32
2022/05/19 13:05:47;;;;;;;4.20;1.40;;;;;;101170.45;;;;107782;1272;29556;-31
2022/05/19 13:08:43;;;;;;;3.80;1.50;;;;;;101166.20;;;;107969;1271;28379;-32
2022/05/19 13:11:15;;;;;;;5.10;1.50;;;;;;101160.81;;;;107797;1271;27770;-31
2022/05/19 13:13:54;;;;;;;3.60;1.70;;;;;;101158.04;;;;107872;1271;25906;-32
2022/05/19 13:16:30;;;;;;;5.10;1.40;;;;;;101155.64;;;;107876;1271;25990;-32
2022/05/19 13:19:21;;;;;;;4.40;1.50;;;;;;101150.89;;;;107973;1271;28579;-32
2022/05/19 13:22:08;;;;;;;4.90;1.50;;;;;;101145.84;;;;107811;1274;28445;-32
2022/05/19 13:24:41;;;;;;;3.00;1.30;;;;;;101140.96;;;;107897;1271;27141;-32
2022/05/19 13:30:21;;;;;;;6.20;1.50;;;;;;101135.38;;;;107897;1271;28403;-32
2022/05/19 13:32:49;;;;;;;4.50;1.50;;;;;;101133.56;;;;107850;1271;30556;-32
2022/05/19 13:35:23;;;;;;;3.70;1.60;;;;;;101131.18;;;;107857;1271;26075;-31
2022/05/19 13:37:50;;;;;;;4.10;1.60;;;;;;101124.86;;;;107895;1271;30574;-29
2022/05/19 13:40:31;;;;;;;3.90;1.40;;;;;;101122.31;;;;107868;1272;30591;-32
2022/05/19 13:43:07;;;;;;;4.20;1.50;;;;;;101120.73;;;;107918;1271;30402;-30
2022/05/19 13:45:51;;;;;;;4.10;1.40;;;;;;101115.75;;;;107856;1272;28574;-31
2022/05/19 13:48:31;;;;;;;;;;;;;;101110.02;;;;107857;1271;26102;-31
2022/05/19 13:51:05;;;;;;;4.80;1.70;;;;;;101109.35;;;;107887;1271;26369;-31